createdAt,value
2023-03-26T00:01:10.588Z,100755.91
2023-03-26T00:03:39.165Z,100750.78
2023-03-26T00:06:08.889Z,100756.78
2023-03-26T00:08:37.038Z,100751.63
2023-03-26T00:11:06.443Z,100748.09
2023-03-26T00:13:33.594Z,100752.44
2023-03-26T00:16:01.264Z,100752.44
2023-03-26T00:18:31.716Z,100737.75
2023-03-26T00:20:59.796Z,100740.34
2023-03-26T00:23:28.287Z,100736.00
2023-03-26T00:25:56.140Z,100735.19
2023-03-26T00:28:24.415Z,100741.28
2023-03-26T00:30:58.709Z,100727.50
2023-03-26T00:33:25.374Z,100736.97
2023-03-26T00:35:56.856Z,100736.13
2023-03-26T00:38:24.124Z,100737.84
2023-03-26T00:40:52.316Z,100738.66
2023-03-26T00:43:20.806Z,100731.75
2023-03-26T00:45:48.730Z,100711.91
2023-03-26T00:48:16.794Z,100731.69
2023-03-26T00:50:45.693Z,100729.06
2023-03-26T00:53:13.868Z,100725.66
2023-03-26T00:55:45.294Z,100724.75
2023-03-26T00:58:13.440Z,100725.53
2023-03-26T01:00:48.483Z,100724.69
2023-03-26T01:03:24.949Z,100734.03
2023-03-26T01:06:02.752Z,100732.25
2023-03-26T01:08:33.389Z,100730.50
2023-03-26T01:11:07.428Z,100723.56
2023-03-26T01:13:38.115Z,100727.00
2023-03-26T01:16:10.010Z,100722.72
2023-03-26T01:18:41.084Z,100714.94
2023-03-26T01:21:09.733Z,100705.38
2023-03-26T01:23:49.362Z,100703.66
2023-03-26T01:26:18.666Z,100700.28
2023-03-26T01:28:46.980Z,100691.53
2023-03-26T01:31:45.381Z,100689.84
2023-03-26T01:34:24.877Z,100693.25
2023-03-26T01:37:01.738Z,100682.94
2023-03-26T01:39:39.026Z,100682.09
2023-03-26T01:42:13.091Z,100673.50
2023-03-26T01:44:48.118Z,100680.34
2023-03-26T01:47:16.222Z,100675.13
2023-03-26T01:49:42.742Z,100648.34
2023-03-26T01:52:16.793Z,100650.97
2023-03-26T01:54:46.714Z,100660.41
2023-03-26T01:57:36.713Z,100624.97
2023-03-26T02:00:16.351Z,100649.19
2023-03-26T02:03:09.900Z,100641.41
2023-03-26T02:05:44.233Z,100642.97
2023-03-26T02:08:41.293Z,100634.34
2023-03-26T02:11:13.218Z,100629.06
2023-03-26T02:13:41.721Z,100628.97
2023-03-26T02:16:14.330Z,100633.06
2023-03-26T02:18:41.484Z,100631.22
2023-03-26T02:21:21.411Z,100613.88
2023-03-26T02:23:57.986Z,100624.16
2023-03-26T02:26:24.879Z,100605.00
2023-03-26T02:28:51.459Z,100622.22
2023-03-26T02:31:19.419Z,100604.19
2023-03-26T02:33:47.618Z,100616.25
2023-03-26T02:36:14.487Z,100609.34
2023-03-26T02:38:41.693Z,100592.97
2023-03-26T02:41:08.363Z,100602.63
2023-03-26T02:43:34.876Z,100595.63
2023-03-26T02:46:01.638Z,100608.78
2023-03-26T02:48:28.261Z,100597.00
2023-03-26T02:50:54.940Z,100591.00
2023-03-26T02:53:21.986Z,100596.19
2023-03-26T02:55:48.571Z,100589.25
2023-03-26T02:58:17.949Z,100565.84
2023-03-26T03:00:46.783Z,100590.94
2023-03-26T03:03:14.283Z,100578.84
2023-03-26T03:05:43.386Z,100565.63
2023-03-26T03:08:10.401Z,100578.59
2023-03-26T03:10:37.888Z,100578.47
2023-03-26T03:13:07.722Z,100549.91
2023-03-26T03:15:35.075Z,100572.19
2023-03-26T03:18:02.314Z,100574.75
2023-03-26T03:20:30.369Z,100557.41
2023-03-26T03:22:56.998Z,100578.78
2023-03-26T03:25:23.598Z,100584.69
2023-03-26T03:27:50.524Z,100572.75
2023-03-26T03:30:17.140Z,100537.28
2023-03-26T03:32:43.793Z,100564.16
2023-03-26T03:35:10.877Z,100558.91
2023-03-26T03:37:37.424Z,100554.53
2023-03-26T03:40:08.255Z,100535.63
2023-03-26T03:42:34.885Z,100543.41
2023-03-26T03:45:02.269Z,100557.25
2023-03-26T03:47:28.930Z,100548.66
2023-03-26T03:49:56.941Z,100547.97
2023-03-26T03:52:23.466Z,100529.22
2023-03-26T03:54:50.049Z,100542.28
2023-03-26T03:57:18.877Z,100534.66
2023-03-26T03:59:47.771Z,100513.91
2023-03-26T04:02:21.363Z,100536.22
2023-03-26T04:04:50.156Z,100545.75
2023-03-26T04:07:16.880Z,100528.63
2023-03-26T04:09:43.443Z,100528.75
2023-03-26T04:12:10.049Z,100516.00
2023-03-26T04:14:36.582Z,100514.16
2023-03-26T04:17:05.418Z,100523.59
2023-03-26T04:19:31.982Z,100532.06
2023-03-26T04:22:02.839Z,100539.78
2023-03-26T04:24:29.949Z,100521.50
2023-03-26T04:26:58.314Z,100531.94
2023-03-26T04:29:27.771Z,100535.31
2023-03-26T04:32:07.035Z,100537.25
2023-03-26T04:34:34.624Z,100533.91
2023-03-26T04:37:02.717Z,100531.50
2023-03-26T04:39:29.576Z,100525.66
2023-03-26T04:41:57.890Z,100503.41
2023-03-26T04:44:24.581Z,100518.19
2023-03-26T04:46:53.522Z,100496.75
2023-03-26T04:49:20.051Z,100506.34
2023-03-26T04:51:47.106Z,100510.78
2023-03-26T04:54:16.368Z,100491.09
2023-03-26T04:56:45.860Z,100499.84
2023-03-26T04:59:17.552Z,100481.81
2023-03-26T05:01:46.003Z,100487.16
2023-03-26T05:04:13.790Z,100491.47
2023-03-26T05:06:43.486Z,100473.47
2023-03-26T05:09:10.746Z,100480.44
2023-03-26T05:11:37.313Z,100471.88
2023-03-26T05:14:04.140Z,100477.13
2023-03-26T05:16:31.852Z,100470.22
2023-03-26T05:18:58.495Z,100478.88
2023-03-26T05:21:25.856Z,100449.53
2023-03-26T05:23:52.501Z,100476.31
2023-03-26T05:26:19.517Z,100469.44
2023-03-26T05:28:46.133Z,100460.91
2023-03-26T05:31:12.816Z,100469.56
2023-03-26T05:33:39.706Z,100458.38
2023-03-26T05:36:09.605Z,100468.78
2023-03-26T05:38:36.192Z,100465.31
2023-03-26T05:41:06.273Z,100460.16
2023-03-26T05:43:33.359Z,100455.09
2023-03-26T05:46:00.394Z,100447.44
2023-03-26T05:48:27.527Z,100436.28
2023-03-26T05:50:56.380Z,100453.59
2023-03-26T05:53:25.037Z,100442.44
2023-03-26T05:55:58.167Z,100448.63
2023-03-26T05:58:30.931Z,100449.50
2023-03-26T06:01:10.109Z,100451.28
2023-03-26T06:03:39.604Z,100450.47
2023-03-26T06:06:15.508Z,100447.13
2023-03-26T06:08:43.685Z,100436.84
2023-03-26T06:11:12.643Z,100428.34
2023-03-26T06:13:40.182Z,100435.34
2023-03-26T06:16:07.659Z,100418.19
2023-03-26T06:18:34.487Z,100419.94
2023-03-26T06:21:01.289Z,100402.84
2023-03-26T06:23:28.228Z,100395.16
2023-03-26T06:25:54.817Z,100408.06
2023-03-26T06:28:21.556Z,100412.44
2023-03-26T06:30:48.216Z,100409.03
2023-03-26T06:33:15.018Z,100414.19
2023-03-26T06:35:42.900Z,100381.56
2023-03-26T06:38:09.652Z,100400.53
2023-03-26T06:40:36.322Z,100392.84
2023-03-26T06:43:08.643Z,100394.66
2023-03-26T06:45:37.752Z,100396.38
2023-03-26T06:48:04.929Z,100377.38
2023-03-26T06:50:32.838Z,100380.91
2023-03-26T06:52:59.561Z,100329.22
2023-03-26T06:55:26.550Z,100390.41
2023-03-26T06:57:54.838Z,100386.16
2023-03-26T07:00:21.575Z,100387.03
2023-03-26T07:02:48.283Z,100381.00
2023-03-26T07:05:15.681Z,100376.78
2023-03-26T07:07:46.457Z,100368.13
2023-03-26T07:10:14.346Z,100388.00
2023-03-26T07:12:42.514Z,100385.50
2023-03-26T07:15:10.336Z,100372.66
2023-03-26T07:17:37.325Z,100389.94
2023-03-26T07:20:05.633Z,100384.03
2023-03-26T07:22:32.413Z,100353.94
2023-03-26T07:24:59.195Z,100378.09
2023-03-26T07:27:34.750Z,100380.66
2023-03-26T07:30:30.665Z,100387.56
2023-03-26T07:33:06.473Z,100365.19
2023-03-26T07:35:46.630Z,100372.91
2023-03-26T07:38:31.650Z,100385.84
2023-03-26T07:40:58.207Z,100387.53
2023-03-26T07:44:06.244Z,100377.28
2023-03-26T07:46:35.081Z,100375.56
2023-03-26T07:49:01.966Z,100365.31
2023-03-26T07:51:29.247Z,100372.25
2023-03-26T07:53:56.385Z,100379.91
2023-03-26T07:56:41.300Z,100373.00
2023-03-26T07:59:17.134Z,100363.56
2023-03-26T08:01:53.174Z,100378.97
2023-03-26T08:04:41.839Z,100381.56
2023-03-26T08:07:18.444Z,100369.63
2023-03-26T08:10:03.701Z,100376.47
2023-03-26T08:12:47.452Z,100367.03
2023-03-26T08:15:39.271Z,100375.72
2023-03-26T08:18:27.526Z,100370.50
2023-03-26T08:21:01.071Z,100363.66
2023-03-26T08:23:35.799Z,100367.03
2023-03-26T08:26:31.266Z,100358.41
2023-03-26T08:29:18.036Z,100381.63
2023-03-26T08:31:46.668Z,100385.06
2023-03-26T08:34:13.990Z,100376.44
2023-03-26T08:36:40.925Z,100348.91
2023-03-26T08:39:08.120Z,100349.78
2023-03-26T08:42:08.172Z,100370.47
2023-03-26T08:44:34.674Z,100378.28
2023-03-26T08:47:25.660Z,100380.84
2023-03-26T08:50:33.761Z,100351.56
2023-03-26T08:53:25.299Z,100387.63
2023-03-26T08:55:53.675Z,100381.63
2023-03-26T08:58:20.481Z,100380.81
2023-03-26T09:01:22.133Z,100369.63
2023-03-26T09:03:58.960Z,100382.53
2023-03-26T09:06:29.086Z,100365.47
2023-03-26T09:09:18.787Z,100378.47
2023-03-26T09:11:48.951Z,100381.75
2023-03-26T09:14:30.689Z,100380.06
2023-03-26T09:17:34.905Z,100377.56
2023-03-26T09:20:14.401Z,100380.97
2023-03-26T09:22:50.020Z,100381.84
2023-03-26T09:25:39.829Z,100386.88
2023-03-26T09:28:29.577Z,100387.72
2023-03-26T09:31:33.478Z,100385.97
2023-03-26T09:34:15.535Z,100393.72
2023-03-26T09:37:25.077Z,100391.03
2023-03-26T09:40:18.681Z,100386.78
2023-03-26T09:43:00.522Z,100403.03
2023-03-26T09:45:51.657Z,100395.31
2023-03-26T09:48:48.293Z,100395.38
2023-03-26T09:51:38.588Z,100388.56
2023-03-26T09:54:23.618Z,100403.16
2023-03-26T09:56:58.018Z,100406.69
2023-03-26T09:59:33.524Z,100404.16
2023-03-26T10:02:46.051Z,100392.94
2023-03-26T10:05:29.673Z,100404.25
2023-03-26T10:08:06.852Z,100387.06
2023-03-26T10:10:57.260Z,100412.78
2023-03-26T10:13:42.662Z,100419.75
2023-03-26T10:16:21.509Z,100418.91
2023-03-26T10:19:37.798Z,100408.53
2023-03-26T10:22:30.671Z,100412.97
2023-03-26T10:25:16.587Z,100414.69
2023-03-26T10:28:06.295Z,100403.63
2023-03-26T10:31:14.300Z,100413.22
2023-03-26T10:34:28.919Z,100426.16
2023-03-26T10:37:08.003Z,100419.31
2023-03-26T10:40:00.273Z,100420.19
2023-03-26T10:42:49.419Z,100418.47
2023-03-26T10:45:39.784Z,100411.50
2023-03-26T10:48:18.703Z,100417.66
2023-03-26T10:51:01.591Z,100428.88
2023-03-26T10:53:54.939Z,100434.94
2023-03-26T10:56:32.929Z,100439.22
2023-03-26T10:59:05.545Z,100438.34
2023-03-26T11:01:49.018Z,100440.16
2023-03-26T11:04:21.097Z,100444.59
2023-03-26T11:07:10.851Z,100436.03
2023-03-26T11:09:40.445Z,100445.50
2023-03-26T11:12:26.401Z,100446.31
2023-03-26T11:15:32.264Z,100450.59
2023-03-26T11:18:20.715Z,100460.78
2023-03-26T11:21:18.633Z,100461.75
2023-03-26T11:23:46.928Z,100454.88
2023-03-26T11:26:22.620Z,100460.00
2023-03-26T11:29:04.448Z,100453.19
2023-03-26T11:31:44.344Z,100452.44
2023-03-26T11:34:19.160Z,100460.16
2023-03-26T11:36:53.990Z,100462.75
2023-03-26T11:39:29.513Z,100464.53
2023-03-26T11:42:06.206Z,100449.94
2023-03-26T11:44:39.489Z,100472.31
2023-03-26T11:47:10.388Z,100466.31
2023-03-26T11:49:37.570Z,100456.69
2023-03-26T11:52:04.311Z,100465.28
2023-03-26T11:54:32.900Z,100399.97
2023-03-26T11:57:08.575Z,100449.84
2023-03-26T11:59:57.273Z,100463.53
2023-03-26T12:02:26.262Z,100461.75
2023-03-26T12:05:02.859Z,100447.97
2023-03-26T12:07:34.742Z,100472.09
2023-03-26T12:10:18.330Z,100468.50
2023-03-26T12:12:47.029Z,100479.69
2023-03-26T12:15:19.130Z,100484.00
2023-03-26T12:17:48.033Z,100483.84
2023-03-26T12:20:27.014Z,100498.41
2023-03-26T12:22:59.440Z,100493.22
2023-03-26T12:25:31.205Z,100496.72
2023-03-26T12:28:02.955Z,100496.72
2023-03-26T12:30:35.290Z,100500.13
2023-03-26T12:33:05.759Z,100507.19
2023-03-26T12:35:35.032Z,100501.13
2023-03-26T12:38:39.261Z,100510.44
2023-03-26T12:43:40.603Z,100514.72
2023-03-26T12:44:55.668Z,100516.56
2023-03-26T12:47:58.042Z,100513.09
2023-03-26T12:49:33.932Z,100517.38
2023-03-26T12:52:25.277Z,100521.66
2023-03-26T12:55:00.297Z,100514.88
2023-03-26T12:57:41.008Z,100523.41
2023-03-26T13:00:28.888Z,100526.88
2023-03-26T13:03:14.510Z,100531.16
2023-03-26T13:06:12.334Z,100531.31
2023-03-26T13:08:58.661Z,100531.28
2023-03-26T13:11:44.117Z,100537.28
2023-03-26T13:14:13.556Z,100542.50
2023-03-26T13:16:59.540Z,100531.19
2023-03-26T13:19:34.500Z,100547.63
2023-03-26T13:22:15.334Z,100548.25
2023-03-26T13:25:02.372Z,100532.69
2023-03-26T13:27:59.671Z,100555.22
2023-03-26T13:31:02.393Z,100559.59
2023-03-26T13:33:32.001Z,100567.34
2023-03-26T13:36:36.387Z,100570.66
2023-03-26T13:39:30.598Z,100576.78
2023-03-26T13:42:26.689Z,100569.78
2023-03-26T13:45:04.994Z,100576.63
2023-03-26T13:47:36.771Z,100554.91
2023-03-26T13:50:29.517Z,100581.56
2023-03-26T13:53:02.090Z,100553.81
2023-03-26T13:55:40.089Z,100583.22
2023-03-26T13:58:16.035Z,100585.09
2023-03-26T14:01:04.633Z,100582.25
2023-03-26T14:03:51.478Z,100595.88
2023-03-26T14:06:43.506Z,100601.94
2023-03-26T14:09:26.650Z,100600.31
2023-03-26T14:12:07.994Z,100593.25
2023-03-26T14:15:00.977Z,100613.78
2023-03-26T14:17:42.760Z,100617.25
2023-03-26T14:20:19.949Z,100617.41
2023-03-26T14:23:12.889Z,100619.09
2023-03-26T14:25:50.340Z,100606.25
2023-03-26T14:28:48.024Z,100632.84
2023-03-26T14:31:23.676Z,100624.97
2023-03-26T14:34:04.789Z,100646.59
2023-03-26T14:36:35.621Z,100640.94
2023-03-26T14:39:22.509Z,100648.72
2023-03-26T14:41:53.631Z,100643.63
2023-03-26T14:44:48.018Z,100664.72
2023-03-26T14:47:23.796Z,100636.19
2023-03-26T14:50:12.143Z,100661.41
2023-03-26T14:52:51.851Z,100662.19
2023-03-26T14:55:56.789Z,100665.59
2023-03-26T14:58:41.751Z,100669.94
2023-03-26T15:01:23.668Z,100672.38
2023-03-26T15:04:27.877Z,100670.34
2023-03-26T15:07:25.888Z,100670.31
2023-03-26T15:10:22.751Z,100697.03
2023-03-26T15:12:58.357Z,100691.81
2023-03-26T15:15:34.939Z,100700.47
2023-03-26T15:18:11.814Z,100701.09
2023-03-26T15:20:47.467Z,100706.97
2023-03-26T15:23:48.329Z,100709.34
2023-03-26T15:26:46.484Z,100714.47
2023-03-26T15:29:37.840Z,100719.56
2023-03-26T15:32:22.330Z,100728.44
2023-03-26T15:35:26.976Z,100722.53
2023-03-26T15:37:59.522Z,100732.75
2023-03-26T15:40:38.131Z,100748.81
2023-03-26T15:43:12.292Z,100741.84
2023-03-26T15:45:48.057Z,100742.88
2023-03-26T15:48:21.860Z,100760.88
2023-03-26T15:50:48.378Z,100764.38
2023-03-26T15:53:33.665Z,100763.66
2023-03-26T15:56:25.864Z,100790.19
2023-03-26T15:59:05.352Z,100777.69
2023-03-26T16:02:11.123Z,100799.00
2023-03-26T16:04:50.723Z,100792.94
2023-03-26T16:07:21.830Z,100800.59
2023-03-26T16:10:00.810Z,100801.09
2023-03-26T16:12:31.913Z,100806.22
2023-03-26T16:15:07.509Z,100818.34
2023-03-26T16:18:15.406Z,100816.41
2023-03-26T16:20:53.991Z,100822.56
2023-03-26T16:23:55.279Z,100809.53
2023-03-26T16:26:52.148Z,100832.53
2023-03-26T16:29:22.372Z,100833.41
2023-03-26T16:32:00.036Z,100835.13
2023-03-26T16:34:40.964Z,100850.28
2023-03-26T16:37:36.552Z,100852.00
2023-03-26T16:40:20.262Z,100862.31
2023-03-26T16:43:17.801Z,100865.41
2023-03-26T16:46:22.220Z,100884.97
2023-03-26T16:49:03.708Z,100889.16
2023-03-26T16:51:39.672Z,100877.41
2023-03-26T16:54:24.520Z,100882.25
2023-03-26T16:57:02.208Z,100895.13
2023-03-26T16:59:46.883Z,100902.94
2023-03-26T17:03:08.056Z,100913.13
2023-03-26T17:05:58.122Z,100906.13
2023-03-26T17:08:56.977Z,100903.34
2023-03-26T17:11:50.869Z,100925.59
2023-03-26T17:14:29.887Z,100924.44
2023-03-26T17:17:25.707Z,100935.63
2023-03-26T17:19:52.140Z,100942.56
2023-03-26T17:22:45.331Z,100945.81
2023-03-26T17:25:25.732Z,100946.50
2023-03-26T17:28:11.131Z,100943.13
2023-03-26T17:30:41.061Z,100963.44
2023-03-26T17:33:23.680Z,100962.25
2023-03-26T17:35:51.750Z,100960.50
2023-03-26T17:38:18.246Z,100974.16
2023-03-26T17:40:56.802Z,100960.22
2023-03-26T17:43:36.376Z,100979.06
2023-03-26T17:46:21.837Z,100981.84
2023-03-26T17:48:52.710Z,100985.31
2023-03-26T17:51:50.423Z,100996.25
2023-03-26T17:54:30.642Z,100998.81
2023-03-26T17:57:06.471Z,100990.75
2023-03-26T17:59:33.736Z,101003.63
2023-03-26T18:02:03.619Z,101013.19
2023-03-26T18:04:40.465Z,101009.53
2023-03-26T18:07:57.999Z,101031.91
2023-03-26T18:10:28.813Z,101041.28
2023-03-26T18:13:01.589Z,101037.59
2023-03-26T18:16:01.245Z,101040.75
2023-03-26T18:18:27.855Z,101053.47
2023-03-26T18:20:55.284Z,101048.31
2023-03-26T18:23:26.679Z,101044.38
2023-03-26T18:26:08.297Z,101078.09
2023-03-26T18:28:40.499Z,101077.00
2023-03-26T18:31:16.663Z,101083.94
2023-03-26T18:33:45.806Z,101095.38
2023-03-26T18:36:14.498Z,101090.19
2023-03-26T18:38:42.882Z,101103.78
2023-03-26T18:41:39.196Z,101109.72
2023-03-26T18:44:13.361Z,101120.69
2023-03-26T18:46:41.177Z,101109.09
2023-03-26T18:49:12.377Z,101108.28
2023-03-26T18:51:50.129Z,101136.19
2023-03-26T18:54:23.726Z,101134.28
2023-03-26T18:56:52.152Z,101137.38
2023-03-26T18:59:35.159Z,101149.63
2023-03-26T19:02:11.434Z,101146.00
2023-03-26T19:04:38.677Z,101151.09
2023-03-26T19:07:13.734Z,101167.25
2023-03-26T19:09:41.321Z,101169.00
2023-03-26T19:12:22.785Z,101174.00
2023-03-26T19:15:11.147Z,101176.47
2023-03-26T19:18:14.443Z,101167.78
2023-03-26T19:20:45.635Z,101183.44
2023-03-26T19:23:18.365Z,101183.59
2023-03-26T19:25:51.269Z,101172.03
2023-03-26T19:28:23.317Z,101201.69
2023-03-26T19:30:56.392Z,101195.31
2023-03-26T19:33:25.052Z,101199.44
2023-03-26T19:36:12.693Z,101193.38
2023-03-26T19:38:48.772Z,101213.38
2023-03-26T19:41:36.781Z,101213.28
2023-03-26T19:44:27.611Z,101216.72
2023-03-26T19:47:03.123Z,101225.16
2023-03-26T19:49:33.316Z,101222.63
2023-03-26T19:52:27.467Z,101218.97
2023-03-26T19:55:18.852Z,101233.97
2023-03-26T19:57:45.400Z,101232.69
2023-03-26T20:00:15.255Z,101217.03
2023-03-26T20:02:43.129Z,101229.97
2023-03-26T20:05:24.585Z,101234.88
2023-03-26T20:07:52.236Z,101244.69
2023-03-26T20:10:18.991Z,101244.41
2023-03-26T20:12:45.642Z,101246.72
2023-03-26T20:15:20.836Z,101239.84
2023-03-26T20:17:50.205Z,101244.09
2023-03-26T20:20:17.453Z,101247.38
2023-03-26T20:22:46.913Z,101222.16
2023-03-26T20:27:53.070Z,101268.50
2023-03-26T20:30:36.299Z,101264.03
2023-03-26T20:33:11.831Z,101266.72
2023-03-26T20:35:40.367Z,101264.63
2023-03-26T20:38:09.678Z,101288.47
2023-03-26T20:40:37.161Z,101277.25
2023-03-26T20:43:04.055Z,101297.94
2023-03-26T20:45:30.591Z,101296.19
2023-03-26T20:47:57.509Z,101308.00
2023-03-26T20:50:24.637Z,101319.63
2023-03-26T20:52:51.150Z,101310.84
2023-03-26T20:55:21.710Z,101319.72
2023-03-26T20:57:48.910Z,101316.97
2023-03-26T21:00:22.386Z,101315.88
2023-03-26T21:02:54.181Z,101327.97
2023-03-26T21:05:26.789Z,101331.22
2023-03-26T21:07:58.612Z,101329.50
2023-03-26T21:10:34.323Z,101340.66
2023-03-26T21:13:21.826Z,101337.50
2023-03-26T21:15:49.014Z,101322.25
2023-03-26T21:18:15.787Z,101330.06
2023-03-26T21:20:46.399Z,101314.66
2023-03-26T21:23:32.448Z,101366.59
2023-03-26T21:26:06.387Z,101366.31
2023-03-26T21:28:46.670Z,101336.06
2023-03-26T21:31:19.853Z,101362.13
2023-03-26T21:33:47.884Z,101378.09
2023-03-26T21:36:15.940Z,101383.59
2023-03-26T21:38:46.001Z,101377.94
2023-03-26T21:41:43.581Z,101387.97
2023-03-26T21:44:10.301Z,101384.38
2023-03-26T21:46:37.180Z,101393.78
2023-03-26T21:49:04.177Z,101390.22
2023-03-26T21:51:32.030Z,101371.75
2023-03-26T21:53:58.844Z,101373.22
2023-03-26T21:56:37.628Z,101401.25
2023-03-26T21:59:12.568Z,101392.09
2023-03-26T22:02:05.823Z,101419.72
2023-03-26T22:04:41.824Z,101403.72
2023-03-26T22:07:42.169Z,101394.72
2023-03-26T22:10:08.821Z,101417.13
2023-03-26T22:12:36.012Z,101420.63
2023-03-26T22:15:02.619Z,101426.38
2023-03-26T22:17:29.157Z,101429.91
2023-03-26T22:19:56.300Z,101431.41
2023-03-26T22:22:26.164Z,101430.03
2023-03-26T22:24:53.595Z,101440.72
2023-03-26T22:27:20.220Z,101416.72
2023-03-26T22:29:47.354Z,101429.50
2023-03-26T22:32:13.956Z,101449.59
2023-03-26T22:34:41.441Z,101449.03
2023-03-26T22:37:08.022Z,101449.63
2023-03-26T22:39:34.544Z,101438.19
2023-03-26T22:42:03.752Z,101458.72
2023-03-26T22:44:31.233Z,101459.94
2023-03-26T22:46:57.791Z,101457.88
2023-03-26T22:49:30.095Z,101471.63
2023-03-26T22:51:57.074Z,101467.94
2023-03-26T22:54:24.061Z,101459.16
2023-03-26T22:56:52.234Z,101461.88
2023-03-26T22:59:19.034Z,101465.03
2023-03-26T23:01:45.887Z,101474.13
2023-03-26T23:04:12.968Z,101494.81
2023-03-26T23:06:58.366Z,101494.88
2023-03-26T23:09:24.925Z,101475.25
2023-03-26T23:11:51.816Z,101510.56
2023-03-26T23:14:19.104Z,101507.50
2023-03-26T23:16:48.466Z,101517.84
2023-03-26T23:19:15.002Z,101516.22
2023-03-26T23:21:42.325Z,101529.91
2023-03-26T23:24:09.101Z,101524.97
2023-03-26T23:26:49.588Z,101525.59
2023-03-26T23:29:17.340Z,101539.03
2023-03-26T23:31:44.223Z,101544.97
2023-03-26T23:34:13.448Z,101555.84
2023-03-26T23:36:40.903Z,101533.09
2023-03-26T23:39:08.375Z,101550.41
2023-03-26T23:41:35.186Z,101547.53
2023-03-26T23:44:01.728Z,101551.41
2023-03-26T23:46:35.390Z,101570.34
2023-03-26T23:49:04.691Z,101557.03
2023-03-26T23:51:32.036Z,101554.56
2023-03-26T23:53:59.824Z,101564.59
2023-03-26T23:56:27.782Z,101576.56
2023-03-26T23:58:55.186Z,101578.84
